sensor_id;sensor_type;location;lat;lon;timestamp;P1;durP1;ratioP1;P2;durP2;ratioP2
21810;SDS011;11067;48.788;9.208;2022-07-29T00:00:41;7.77;;;4.97;;
21810;SDS011;11067;48.788;9.208;2022-07-29T00:03:09;5.95;;;5.07;;
21810;SDS011;11067;48.788;9.208;2022-07-29T00:05:35;6.10;;;5.25;;
21810;SDS011;11067;48.788;9.208;2022-07-29T00:08:01;7.27;;;5.60;;
21810;SDS011;11067;48.788;9.208;2022-07-29T00:10:26;9.07;;;5.95;;
21810;SDS011;11067;48.788;9.208;2022-07-29T00:12:52;8.00;;;6.30;;
21810;SDS011;11067;48.788;9.208;2022-07-29T00:15:17;8.50;;;6.55;;
21810;SDS011;11067;48.788;9.208;2022-07-29T00:17:43;8.30;;;6.63;;
21810;SDS011;11067;48.788;9.208;2022-07-29T00:20:09;8.35;;;6.75;;
21810;SDS011;11067;48.788;9.208;2022-07-29T00:22:36;7.68;;;6.53;;
21810;SDS011;11067;48.788;9.208;2022-07-29T00:25:03;9.23;;;6.55;;
21810;SDS011;11067;48.788;9.208;2022-07-29T00:27:29;8.23;;;6.47;;
21810;SDS011;11067;48.788;9.208;2022-07-29T00:29:54;9.68;;;7.03;;
21810;SDS011;11067;48.788;9.208;2022-07-29T00:32:20;6.97;;;6.07;;
21810;SDS011;11067;48.788;9.208;2022-07-29T00:34:45;7.32;;;6.50;;
21810;SDS011;11067;48.788;9.208;2022-07-29T00:37:29;10.93;;;6.90;;
21810;SDS011;11067;48.788;9.208;2022-07-29T00:39:55;10.40;;;6.83;;
21810;SDS011;11067;48.788;9.208;2022-07-29T00:42:20;9.27;;;6.50;;
21810;SDS011;11067;48.788;9.208;2022-07-29T00:44:46;7.95;;;6.45;;
21810;SDS011;11067;48.788;9.208;2022-07-29T00:47:11;8.43;;;6.43;;
21810;SDS011;11067;48.788;9.208;2022-07-29T00:49:38;8.70;;;6.28;;
21810;SDS011;11067;48.788;9.208;2022-07-29T00:52:05;7.57;;;5.55;;
21810;SDS011;11067;48.788;9.208;2022-07-29T00:54:32;7.47;;;5.40;;
21810;SDS011;11067;48.788;9.208;2022-07-29T00:56:58;5.82;;;4.97;;
21810;SDS011;11067;48.788;9.208;2022-07-29T00:59:25;9.02;;;6.07;;
21810;SDS011;11067;48.788;9.208;2022-07-29T01:01:51;6.38;;;4.85;;
21810;SDS011;11067;48.788;9.208;2022-07-29T01:04:18;6.93;;;4.93;;
21810;SDS011;11067;48.788;9.208;2022-07-29T01:06:44;5.45;;;4.55;;
21810;SDS011;11067;48.788;9.208;2022-07-29T01:09:09;5.20;;;4.53;;
21810;SDS011;11067;48.788;9.208;2022-07-29T01:11:35;6.10;;;4.50;;
21810;SDS011;11067;48.788;9.208;2022-07-29T01:14:01;5.32;;;4.40;;
21810;SDS011;11067;48.788;9.208;2022-07-29T01:16:30;7.50;;;4.38;;
21810;SDS011;11067;48.788;9.208;2022-07-29T01:19:06;5.27;;;4.37;;
21810;SDS011;11067;48.788;9.208;2022-07-29T01:24:30;4.95;;;4.35;;
21810;SDS011;11067;48.788;9.208;2022-07-29T01:29:58;4.10;;;3.78;;
21810;SDS011;11067;48.788;9.208;2022-07-29T01:32:26;5.30;;;3.80;;
21810;SDS011;11067;48.788;9.208;2022-07-29T01:37:22;5.47;;;4.15;;
21810;SDS011;11067;48.788;9.208;2022-07-29T01:40:18;4.78;;;4.28;;
21810;SDS011;11067;48.788;9.208;2022-07-29T01:42:51;4.40;;;4.00;;
21810;SDS011;11067;48.788;9.208;2022-07-29T01:51:03;4.60;;;3.90;;
21810;SDS011;11067;48.788;9.208;2022-07-29T01:53:36;4.68;;;4.00;;
21810;SDS011;11067;48.788;9.208;2022-07-29T01:56:09;4.18;;;3.67;;
21810;SDS011;11067;48.788;9.208;2022-07-29T01:58:36;4.40;;;3.50;;
21810;SDS011;11067;48.788;9.208;2022-07-29T02:01:05;4.20;;;3.80;;
21810;SDS011;11067;48.788;9.208;2022-07-29T02:03:37;4.20;;;3.78;;
21810;SDS011;11067;48.788;9.208;2022-07-29T02:06:04;4.30;;;3.67;;
21810;SDS011;11067;48.788;9.208;2022-07-29T02:08:32;4.57;;;3.87;;
21810;SDS011;11067;48.788;9.208;2022-07-29T02:10:59;4.25;;;3.58;;
21810;SDS011;11067;48.788;9.208;2022-07-29T02:13:27;5.25;;;3.75;;
21810;SDS011;11067;48.788;9.208;2022-07-29T02:15:54;3.90;;;3.60;;
21810;SDS011;11067;48.788;9.208;2022-07-29T02:18:22;3.92;;;3.63;;
21810;SDS011;11067;48.788;9.208;2022-07-29T02:20:52;5.70;;;4.13;;
21810;SDS011;11067;48.788;9.208;2022-07-29T02:23:21;4.20;;;3.70;;
21810;SDS011;11067;48.788;9.208;2022-07-29T02:25:51;5.73;;;3.90;;
21810;SDS011;11067;48.788;9.208;2022-07-29T02:28:19;4.38;;;3.97;;
21810;SDS011;11067;48.788;9.208;2022-07-29T02:30:47;4.40;;;4.00;;
21810;SDS011;11067;48.788;9.208;2022-07-29T02:33:15;4.60;;;3.87;;
21810;SDS011;11067;48.788;9.208;2022-07-29T02:35:45;4.30;;;3.90;;
21810;SDS011;11067;48.788;9.208;2022-07-29T02:38:12;5.85;;;5.20;;
21810;SDS011;11067;48.788;9.208;2022-07-29T02:40:58;7.22;;;5.15;;
21810;SDS011;11067;48.788;9.208;2022-07-29T02:43:27;7.80;;;5.47;;
21810;SDS011;11067;48.788;9.208;2022-07-29T02:45:54;7.30;;;5.80;;
21810;SDS011;11067;48.788;9.208;2022-07-29T02:48:26;8.10;;;6.07;;
21810;SDS011;11067;48.788;9.208;2022-07-29T02:51:00;8.57;;;6.20;;
21810;SDS011;11067;48.788;9.208;2022-07-29T02:53:30;8.25;;;6.35;;
21810;SDS011;11067;48.788;9.208;2022-07-29T02:55:59;8.37;;;6.07;;
21810;SDS011;11067;48.788;9.208;2022-07-29T02:58:33;7.05;;;6.35;;
21810;SDS011;11067;48.788;9.208;2022-07-29T03:01:03;7.83;;;5.90;;
21810;SDS011;11067;48.788;9.208;2022-07-29T03:03:35;7.95;;;6.25;;
21810;SDS011;11067;48.788;9.208;2022-07-29T03:06:02;6.67;;;5.50;;
21810;SDS011;11067;48.788;9.208;2022-07-29T03:08:29;7.65;;;5.55;;
21810;SDS011;11067;48.788;9.208;2022-07-29T03:10:57;7.60;;;5.82;;
21810;SDS011;11067;48.788;9.208;2022-07-29T03:13:23;8.18;;;5.63;;
21810;SDS011;11067;48.788;9.208;2022-07-29T03:15:50;8.23;;;5.85;;
21810;SDS011;11067;48.788;9.208;2022-07-29T03:18:16;7.15;;;6.45;;
21810;SDS011;11067;48.788;9.208;2022-07-29T03:20:42;7.13;;;5.75;;
21810;SDS011;11067;48.788;9.208;2022-07-29T03:23:08;7.50;;;5.95;;
21810;SDS011;11067;48.788;9.208;2022-07-29T03:25:34;7.77;;;6.47;;
21810;SDS011;11067;48.788;9.208;2022-07-29T03:28:00;9.10;;;5.47;;
21810;SDS011;11067;48.788;9.208;2022-07-29T03:30:25;8.23;;;5.43;;
21810;SDS011;11067;48.788;9.208;2022-07-29T03:32:51;6.63;;;5.30;;
21810;SDS011;11067;48.788;9.208;2022-07-29T03:35:19;7.85;;;5.43;;
21810;SDS011;11067;48.788;9.208;2022-07-29T03:37:45;6.70;;;5.35;;
21810;SDS011;11067;48.788;9.208;2022-07-29T03:40:11;5.90;;;5.18;;
21810;SDS011;11067;48.788;9.208;2022-07-29T03:42:59;6.70;;;5.88;;
21810;SDS011;11067;48.788;9.208;2022-07-29T03:45:26;6.00;;;5.40;;
21810;SDS011;11067;48.788;9.208;2022-07-29T03:47:56;7.43;;;5.53;;
21810;SDS011;11067;48.788;9.208;2022-07-29T03:50:26;7.47;;;5.40;;
21810;SDS011;11067;48.788;9.208;2022-07-29T03:52:53;7.25;;;5.85;;
21810;SDS011;11067;48.788;9.208;2022-07-29T03:55:19;6.63;;;5.63;;
21810;SDS011;11067;48.788;9.208;2022-07-29T03:57:45;14.53;;;7.30;;
21810;SDS011;11067;48.788;9.208;2022-07-29T04:00:12;6.43;;;5.25;;
21810;SDS011;11067;48.788;9.208;2022-07-29T04:02:40;6.15;;;5.43;;
21810;SDS011;11067;48.788;9.208;2022-07-29T04:05:12;5.97;;;5.20;;
21810;SDS011;11067;48.788;9.208;2022-07-29T04:07:39;6.20;;;5.15;;
21810;SDS011;11067;48.788;9.208;2022-07-29T04:10:05;5.50;;;4.90;;
21810;SDS011;11067;48.788;9.208;2022-07-29T04:12:32;4.97;;;4.40;;
21810;SDS011;11067;48.788;9.208;2022-07-29T04:14:57;6.22;;;4.20;;
21810;SDS011;11067;48.788;9.208;2022-07-29T04:17:23;5.03;;;4.13;;
21810;SDS011;11067;48.788;9.208;2022-07-29T04:19:48;4.80;;;4.00;;
21810;SDS011;11067;48.788;9.208;2022-07-29T04:22:14;4.73;;;4.17;;
21810;SDS011;11067;48.788;9.208;2022-07-29T04:24:39;4.53;;;4.07;;
21810;SDS011;11067;48.788;9.208;2022-07-29T04:27:05;5.43;;;4.40;;
21810;SDS011;11067;48.788;9.208;2022-07-29T04:29:30;5.07;;;4.57;;
21810;SDS011;11067;48.788;9.208;2022-07-29T04:31:56;5.23;;;4.10;;
21810;SDS011;11067;48.788;9.208;2022-07-29T04:34:21;5.70;;;3.70;;
21810;SDS011;11067;48.788;9.208;2022-07-29T04:36:47;4.67;;;3.50;;
21810;SDS011;11067;48.788;9.208;2022-07-29T04:39:12;4.17;;;3.77;;
21810;SDS011;11067;48.788;9.208;2022-07-29T04:41:38;5.22;;;4.10;;
21810;SDS011;11067;48.788;9.208;2022-07-29T04:44:03;6.13;;;4.47;;
21810;SDS011;11067;48.788;9.208;2022-07-29T04:46:30;5.70;;;4.82;;
21810;SDS011;11067;48.788;9.208;2022-07-29T04:48:56;4.82;;;4.32;;
21810;SDS011;11067;48.788;9.208;2022-07-29T04:51:21;4.73;;;4.10;;
21810;SDS011;11067;48.788;9.208;2022-07-29T04:53:47;7.17;;;4.77;;
21810;SDS011;11067;48.788;9.208;2022-07-29T04:56:12;11.77;;;4.90;;
21810;SDS011;11067;48.788;9.208;2022-07-29T04:58:38;6.60;;;4.43;;
21810;SDS011;11067;48.788;9.208;2022-07-29T05:01:03;4.50;;;4.10;;
21810;SDS011;11067;48.788;9.208;2022-07-29T05:03:29;5.20;;;4.40;;
21810;SDS011;11067;48.788;9.208;2022-07-29T05:05:55;4.18;;;3.78;;
21810;SDS011;11067;48.788;9.208;2022-07-29T05:08:20;7.67;;;3.90;;
21810;SDS011;11067;48.788;9.208;2022-07-29T05:10:46;6.60;;;4.15;;
21810;SDS011;11067;48.788;9.208;2022-07-29T05:13:12;4.60;;;4.10;;
21810;SDS011;11067;48.788;9.208;2022-07-29T05:15:37;7.93;;;4.78;;
21810;SDS011;11067;48.788;9.208;2022-07-29T05:18:03;6.67;;;5.30;;
21810;SDS011;11067;48.788;9.208;2022-07-29T05:20:29;4.88;;;4.28;;
21810;SDS011;11067;48.788;9.208;2022-07-29T05:22:56;7.73;;;4.83;;
21810;SDS011;11067;48.788;9.208;2022-07-29T05:25:23;4.40;;;4.00;;
21810;SDS011;11067;48.788;9.208;2022-07-29T05:27:49;4.97;;;3.85;;
21810;SDS011;11067;48.788;9.208;2022-07-29T05:30:15;6.57;;;4.43;;
21810;SDS011;11067;48.788;9.208;2022-07-29T05:32:40;5.90;;;4.50;;
21810;SDS011;11067;48.788;9.208;2022-07-29T05:35:06;5.95;;;4.80;;
21810;SDS011;11067;48.788;9.208;2022-07-29T05:37:32;5.35;;;4.18;;
21810;SDS011;11067;48.788;9.208;2022-07-29T05:39:58;5.70;;;4.27;;
21810;SDS011;11067;48.788;9.208;2022-07-29T05:42:24;7.95;;;4.45;;
21810;SDS011;11067;48.788;9.208;2022-07-29T05:44:50;5.32;;;4.20;;
21810;SDS011;11067;48.788;9.208;2022-07-29T05:47:16;5.68;;;4.00;;
21810;SDS011;11067;48.788;9.208;2022-07-29T05:49:41;5.90;;;3.63;;
21810;SDS011;11067;48.788;9.208;2022-07-29T05:52:07;5.95;;;4.22;;
21810;SDS011;11067;48.788;9.208;2022-07-29T05:54:33;5.10;;;4.00;;
21810;SDS011;11067;48.788;9.208;2022-07-29T05:56:59;5.43;;;4.15;;
21810;SDS011;11067;48.788;9.208;2022-07-29T05:59:25;5.23;;;3.67;;
21810;SDS011;11067;48.788;9.208;2022-07-29T06:01:50;5.82;;;3.75;;
21810;SDS011;11067;48.788;9.208;2022-07-29T06:04:16;5.73;;;3.43;;
21810;SDS011;11067;48.788;9.208;2022-07-29T06:06:41;3.63;;;3.33;;
21810;SDS011;11067;48.788;9.208;2022-07-29T06:09:07;6.60;;;3.30;;
21810;SDS011;11067;48.788;9.208;2022-07-29T06:11:32;7.07;;;3.77;;
21810;SDS011;11067;48.788;9.208;2022-07-29T06:13:58;8.18;;;3.58;;
21810;SDS011;11067;48.788;9.208;2022-07-29T06:16:23;5.03;;;3.13;;
21810;SDS011;11067;48.788;9.208;2022-07-29T06:18:49;3.37;;;2.80;;
21810;SDS011;11067;48.788;9.208;2022-07-29T06:21:14;4.17;;;3.27;;
21810;SDS011;11067;48.788;9.208;2022-07-29T06:23:40;4.78;;;2.97;;
21810;SDS011;11067;48.788;9.208;2022-07-29T06:26:06;4.53;;;2.80;;
21810;SDS011;11067;48.788;9.208;2022-07-29T06:28:32;2.93;;;2.50;;
21810;SDS011;11067;48.788;9.208;2022-07-29T06:30:57;3.42;;;2.40;;
21810;SDS011;11067;48.788;9.208;2022-07-29T06:33:23;2.67;;;2.40;;
21810;SDS011;11067;48.788;9.208;2022-07-29T06:35:49;3.83;;;2.90;;
21810;SDS011;11067;48.788;9.208;2022-07-29T06:38:15;3.70;;;3.10;;
21810;SDS011;11067;48.788;9.208;2022-07-29T06:40:41;2.88;;;2.30;;
21810;SDS011;11067;48.788;9.208;2022-07-29T06:43:29;3.97;;;3.00;;
21810;SDS011;11067;48.788;9.208;2022-07-29T06:46:01;4.28;;;2.67;;
21810;SDS011;11067;48.788;9.208;2022-07-29T06:48:27;3.33;;;2.80;;
21810;SDS011;11067;48.788;9.208;2022-07-29T06:50:53;3.28;;;2.90;;
21810;SDS011;11067;48.788;9.208;2022-07-29T06:53:19;3.50;;;2.50;;
21810;SDS011;11067;48.788;9.208;2022-07-29T06:55:45;4.50;;;2.80;;
21810;SDS011;11067;48.788;9.208;2022-07-29T06:58:11;3.13;;;2.83;;
21810;SDS011;11067;48.788;9.208;2022-07-29T07:00:36;3.10;;;2.80;;
21810;SDS011;11067;48.788;9.208;2022-07-29T07:03:02;4.53;;;3.15;;
21810;SDS011;11067;48.788;9.208;2022-07-29T07:05:28;3.63;;;3.03;;
21810;SDS011;11067;48.788;9.208;2022-07-29T07:07:53;4.97;;;2.80;;
21810;SDS011;11067;48.788;9.208;2022-07-29T07:10:19;3.45;;;2.90;;
21810;SDS011;11067;48.788;9.208;2022-07-29T07:12:44;4.40;;;3.00;;
21810;SDS011;11067;48.788;9.208;2022-07-29T07:15:10;4.70;;;2.80;;
21810;SDS011;11067;48.788;9.208;2022-07-29T07:17:35;5.70;;;3.33;;
21810;SDS011;11067;48.788;9.208;2022-07-29T07:20:02;5.60;;;3.17;;
21810;SDS011;11067;48.788;9.208;2022-07-29T07:22:29;4.40;;;3.30;;
21810;SDS011;11067;48.788;9.208;2022-07-29T07:24:55;5.00;;;3.30;;
21810;SDS011;11067;48.788;9.208;2022-07-29T07:27:20;6.57;;;3.83;;
21810;SDS011;11067;48.788;9.208;2022-07-29T07:29:46;3.90;;;3.00;;
21810;SDS011;11067;48.788;9.208;2022-07-29T07:32:11;4.90;;;3.20;;
21810;SDS011;11067;48.788;9.208;2022-07-29T07:34:38;6.85;;;3.67;;
21810;SDS011;11067;48.788;9.208;2022-07-29T07:37:03;6.97;;;3.37;;
21810;SDS011;11067;48.788;9.208;2022-07-29T07:39:29;5.93;;;3.38;;
21810;SDS011;11067;48.788;9.208;2022-07-29T07:41:55;3.30;;;3.00;;
21810;SDS011;11067;48.788;9.208;2022-07-29T07:44:21;6.32;;;3.60;;
21810;SDS011;11067;48.788;9.208;2022-07-29T07:46:46;4.73;;;3.00;;
21810;SDS011;11067;48.788;9.208;2022-07-29T07:49:12;3.42;;;2.92;;
21810;SDS011;11067;48.788;9.208;2022-07-29T07:51:37;4.63;;;3.23;;
21810;SDS011;11067;48.788;9.208;2022-07-29T07:54:03;6.05;;;3.40;;
21810;SDS011;11067;48.788;9.208;2022-07-29T07:56:29;4.97;;;3.20;;
21810;SDS011;11067;48.788;9.208;2022-07-29T07:58:54;5.13;;;3.20;;
21810;SDS011;11067;48.788;9.208;2022-07-29T08:01:23;3.92;;;3.17;;
21810;SDS011;11067;48.788;9.208;2022-07-29T08:03:51;5.47;;;3.38;;
21810;SDS011;11067;48.788;9.208;2022-07-29T08:06:16;5.60;;;3.28;;
21810;SDS011;11067;48.788;9.208;2022-07-29T08:08:42;4.43;;;3.40;;
21810;SDS011;11067;48.788;9.208;2022-07-29T08:11:07;6.47;;;3.80;;
21810;SDS011;11067;48.788;9.208;2022-07-29T08:13:33;6.80;;;3.80;;
21810;SDS011;11067;48.788;9.208;2022-07-29T08:15:58;5.70;;;3.50;;
21810;SDS011;11067;48.788;9.208;2022-07-29T08:18:36;4.00;;;3.60;;
21810;SDS011;11067;48.788;9.208;2022-07-29T08:21:01;5.83;;;3.80;;
21810;SDS011;11067;48.788;9.208;2022-07-29T08:23:27;4.13;;;3.28;;
21810;SDS011;11067;48.788;9.208;2022-07-29T08:25:59;8.23;;;3.92;;
21810;SDS011;11067;48.788;9.208;2022-07-29T08:28:25;5.00;;;3.53;;
21810;SDS011;11067;48.788;9.208;2022-07-29T08:30:51;6.37;;;3.70;;
21810;SDS011;11067;48.788;9.208;2022-07-29T08:33:17;7.93;;;3.83;;
21810;SDS011;11067;48.788;9.208;2022-07-29T08:35:43;5.00;;;3.88;;
21810;SDS011;11067;48.788;9.208;2022-07-29T08:38:08;6.00;;;3.83;;
21810;SDS011;11067;48.788;9.208;2022-07-29T08:40:34;5.97;;;3.88;;
21810;SDS011;11067;48.788;9.208;2022-07-29T08:43:04;5.70;;;3.97;;
21810;SDS011;11067;48.788;9.208;2022-07-29T08:45:33;6.63;;;4.07;;
21810;SDS011;11067;48.788;9.208;2022-07-29T08:48:11;4.93;;;3.78;;
21810;SDS011;11067;48.788;9.208;2022-07-29T08:50:37;3.97;;;3.58;;
21810;SDS011;11067;48.788;9.208;2022-07-29T08:53:05;4.93;;;3.85;;
21810;SDS011;11067;48.788;9.208;2022-07-29T08:55:35;5.53;;;3.97;;
21810;SDS011;11067;48.788;9.208;2022-07-29T08:58:02;5.23;;;3.90;;
21810;SDS011;11067;48.788;9.208;2022-07-29T09:00:27;4.65;;;4.00;;
21810;SDS011;11067;48.788;9.208;2022-07-29T09:02:56;5.15;;;3.60;;
21810;SDS011;11067;48.788;9.208;2022-07-29T09:05:23;7.27;;;4.60;;
21810;SDS011;11067;48.788;9.208;2022-07-29T09:07:50;6.72;;;4.18;;
21810;SDS011;11067;48.788;9.208;2022-07-29T09:10:17;6.57;;;3.90;;
21810;SDS011;11067;48.788;9.208;2022-07-29T09:12:42;4.95;;;3.80;;
21810;SDS011;11067;48.788;9.208;2022-07-29T09:15:08;5.53;;;4.22;;
21810;SDS011;11067;48.788;9.208;2022-07-29T09:17:47;5.37;;;4.13;;
21810;SDS011;11067;48.788;9.208;2022-07-29T09:20:15;6.25;;;4.00;;
21810;SDS011;11067;48.788;9.208;2022-07-29T09:22:45;5.97;;;3.88;;
21810;SDS011;11067;48.788;9.208;2022-07-29T09:25:35;6.78;;;4.80;;
21810;SDS011;11067;48.788;9.208;2022-07-29T09:28:07;7.05;;;3.83;;
21810;SDS011;11067;48.788;9.208;2022-07-29T09:30:34;5.32;;;4.22;;
21810;SDS011;11067;48.788;9.208;2022-07-29T09:33:01;4.80;;;4.05;;
21810;SDS011;11067;48.788;9.208;2022-07-29T09:35:28;6.43;;;4.10;;
21810;SDS011;11067;48.788;9.208;2022-07-29T09:37:54;5.93;;;4.30;;
21810;SDS011;11067;48.788;9.208;2022-07-29T09:40:21;5.50;;;3.95;;
21810;SDS011;11067;48.788;9.208;2022-07-29T09:42:50;7.13;;;3.90;;
21810;SDS011;11067;48.788;9.208;2022-07-29T09:47:56;7.70;;;4.07;;
21810;SDS011;11067;48.788;9.208;2022-07-29T09:50:38;8.27;;;4.28;;
21810;SDS011;11067;48.788;9.208;2022-07-29T09:53:04;6.25;;;3.80;;
21810;SDS011;11067;48.788;9.208;2022-07-29T09:55:31;6.70;;;4.03;;
21810;SDS011;11067;48.788;9.208;2022-07-29T10:00:46;6.13;;;4.00;;
21810;SDS011;11067;48.788;9.208;2022-07-29T10:03:13;5.60;;;4.07;;
21810;SDS011;11067;48.788;9.208;2022-07-29T10:05:40;7.45;;;4.18;;
21810;SDS011;11067;48.788;9.208;2022-07-29T10:08:07;6.47;;;4.37;;
21810;SDS011;11067;48.788;9.208;2022-07-29T10:10:35;5.30;;;3.93;;
21810;SDS011;11067;48.788;9.208;2022-07-29T10:13:04;5.82;;;4.40;;
21810;SDS011;11067;48.788;9.208;2022-07-29T10:15:32;6.00;;;4.30;;
21810;SDS011;11067;48.788;9.208;2022-07-29T10:18:02;8.27;;;4.50;;
21810;SDS011;11067;48.788;9.208;2022-07-29T10:20:27;7.88;;;4.45;;
21810;SDS011;11067;48.788;9.208;2022-07-29T10:22:53;9.73;;;4.87;;
21810;SDS011;11067;48.788;9.208;2022-07-29T10:25:20;4.95;;;4.20;;
21810;SDS011;11067;48.788;9.208;2022-07-29T10:27:47;5.00;;;4.22;;
21810;SDS011;11067;48.788;9.208;2022-07-29T10:30:16;7.90;;;4.38;;
21810;SDS011;11067;48.788;9.208;2022-07-29T10:35:40;4.93;;;4.13;;
21810;SDS011;11067;48.788;9.208;2022-07-29T10:38:46;7.60;;;4.30;;
21810;SDS011;11067;48.788;9.208;2022-07-29T10:41:29;5.70;;;4.35;;
21810;SDS011;11067;48.788;9.208;2022-07-29T10:44:21;8.80;;;4.60;;
21810;SDS011;11067;48.788;9.208;2022-07-29T10:46:48;14.38;;;11.60;;
21810;SDS011;11067;48.788;9.208;2022-07-29T10:49:16;6.30;;;4.90;;
21810;SDS011;11067;48.788;9.208;2022-07-29T10:57:12;15.43;;;6.15;;
21810;SDS011;11067;48.788;9.208;2022-07-29T10:59:41;9.95;;;5.60;;
21810;SDS011;11067;48.788;9.208;2022-07-29T11:04:59;15.20;;;12.02;;
21810;SDS011;11067;48.788;9.208;2022-07-29T11:07:26;12.40;;;8.40;;
21810;SDS011;11067;48.788;9.208;2022-07-29T11:15:07;12.70;;;7.90;;
21810;SDS011;11067;48.788;9.208;2022-07-29T11:20:31;10.45;;;7.20;;
21810;SDS011;11067;48.788;9.208;2022-07-29T11:23:27;12.90;;;8.15;;
21810;SDS011;11067;48.788;9.208;2022-07-29T11:28:57;10.77;;;7.50;;
21810;SDS011;11067;48.788;9.208;2022-07-29T11:31:38;10.27;;;7.57;;
21810;SDS011;11067;48.788;9.208;2022-07-29T11:34:22;9.23;;;8.20;;
21810;SDS011;11067;48.788;9.208;2022-07-29T11:40:07;8.50;;;6.90;;
21810;SDS011;11067;48.788;9.208;2022-07-29T11:45:04;7.07;;;6.30;;
21810;SDS011;11067;48.788;9.208;2022-07-29T11:50:13;8.23;;;6.93;;
21810;SDS011;11067;48.788;9.208;2022-07-29T11:52:44;8.20;;;6.75;;
21810;SDS011;11067;48.788;9.208;2022-07-29T11:55:15;7.97;;;5.93;;
21810;SDS011;11067;48.788;9.208;2022-07-29T11:57:55;7.53;;;6.22;;
21810;SDS011;11067;48.788;9.208;2022-07-29T12:00:28;8.27;;;7.47;;
21810;SDS011;11067;48.788;9.208;2022-07-29T12:03:03;8.10;;;7.07;;
21810;SDS011;11067;48.788;9.208;2022-07-29T12:05:31;8.55;;;7.55;;
21810;SDS011;11067;48.788;9.208;2022-07-29T12:08:08;8.82;;;7.35;;
21810;SDS011;11067;48.788;9.208;2022-07-29T12:10:34;8.55;;;5.35;;
21810;SDS011;11067;48.788;9.208;2022-07-29T12:13:00;8.82;;;5.82;;
21810;SDS011;11067;48.788;9.208;2022-07-29T12:15:26;6.97;;;5.57;;
21810;SDS011;11067;48.788;9.208;2022-07-29T12:17:51;7.50;;;6.10;;
21810;SDS011;11067;48.788;9.208;2022-07-29T12:20:27;6.97;;;5.67;;
21810;SDS011;11067;48.788;9.208;2022-07-29T12:22:54;6.75;;;4.93;;
21810;SDS011;11067;48.788;9.208;2022-07-29T12:25:21;6.75;;;4.18;;
21810;SDS011;11067;48.788;9.208;2022-07-29T12:27:57;5.35;;;4.00;;
21810;SDS011;11067;48.788;9.208;2022-07-29T12:30:43;4.20;;;3.80;;
21810;SDS011;11067;48.788;9.208;2022-07-29T12:33:17;5.85;;;3.80;;
21810;SDS011;11067;48.788;9.208;2022-07-29T12:35:51;6.03;;;4.07;;
21810;SDS011;11067;48.788;9.208;2022-07-29T12:38:21;5.63;;;4.53;;
21810;SDS011;11067;48.788;9.208;2022-07-29T12:40:47;6.37;;;4.00;;
21810;SDS011;11067;48.788;9.208;2022-07-29T12:45:42;6.78;;;4.20;;
21810;SDS011;11067;48.788;9.208;2022-07-29T12:48:09;5.32;;;4.15;;
21810;SDS011;11067;48.788;9.208;2022-07-29T12:50:36;5.03;;;3.70;;
21810;SDS011;11067;48.788;9.208;2022-07-29T12:53:16;6.22;;;3.92;;
21810;SDS011;11067;48.788;9.208;2022-07-29T12:55:42;4.17;;;3.80;;
21810;SDS011;11067;48.788;9.208;2022-07-29T12:58:13;6.43;;;4.32;;
21810;SDS011;11067;48.788;9.208;2022-07-29T13:00:57;3.85;;;3.50;;
21810;SDS011;11067;48.788;9.208;2022-07-29T13:03:44;5.10;;;4.45;;
21810;SDS011;11067;48.788;9.208;2022-07-29T13:06:36;4.65;;;3.72;;
21810;SDS011;11067;48.788;9.208;2022-07-29T13:11:47;6.07;;;4.10;;
21810;SDS011;11067;48.788;9.208;2022-07-29T13:14:30;5.45;;;4.03;;
21810;SDS011;11067;48.788;9.208;2022-07-29T13:17:15;5.60;;;4.45;;
21810;SDS011;11067;48.788;9.208;2022-07-29T13:19:44;7.43;;;5.03;;
21810;SDS011;11067;48.788;9.208;2022-07-29T13:22:15;6.32;;;5.22;;
21810;SDS011;11067;48.788;9.208;2022-07-29T13:24:54;7.65;;;5.55;;
21810;SDS011;11067;48.788;9.208;2022-07-29T13:27:21;7.43;;;5.88;;
21810;SDS011;11067;48.788;9.208;2022-07-29T13:29:49;8.47;;;6.13;;
21810;SDS011;11067;48.788;9.208;2022-07-29T13:32:18;10.05;;;6.22;;
21810;SDS011;11067;48.788;9.208;2022-07-29T13:34:47;7.65;;;5.93;;
21810;SDS011;11067;48.788;9.208;2022-07-29T13:37:14;14.75;;;7.45;;
21810;SDS011;11067;48.788;9.208;2022-07-29T13:39:39;11.05;;;6.35;;
21810;SDS011;11067;48.788;9.208;2022-07-29T13:42:06;7.67;;;5.87;;
21810;SDS011;11067;48.788;9.208;2022-07-29T13:44:32;9.57;;;6.22;;
21810;SDS011;11067;48.788;9.208;2022-07-29T13:46:58;6.43;;;5.47;;
21810;SDS011;11067;48.788;9.208;2022-07-29T13:49:26;9.38;;;6.20;;
21810;SDS011;11067;48.788;9.208;2022-07-29T13:51:52;9.20;;;6.40;;
21810;SDS011;11067;48.788;9.208;2022-07-29T13:54:18;11.20;;;6.75;;
21810;SDS011;11067;48.788;9.208;2022-07-29T13:56:43;9.43;;;6.87;;
21810;SDS011;11067;48.788;9.208;2022-07-29T13:59:09;9.52;;;7.20;;
21810;SDS011;11067;48.788;9.208;2022-07-29T14:01:34;7.40;;;5.70;;
21810;SDS011;11067;48.788;9.208;2022-07-29T14:04:00;8.50;;;6.22;;
21810;SDS011;11067;48.788;9.208;2022-07-29T14:06:26;7.72;;;6.03;;
21810;SDS011;11067;48.788;9.208;2022-07-29T14:08:52;6.93;;;5.90;;
21810;SDS011;11067;48.788;9.208;2022-07-29T14:11:18;6.75;;;5.90;;
21810;SDS011;11067;48.788;9.208;2022-07-29T14:13:44;7.75;;;6.75;;
21810;SDS011;11067;48.788;9.208;2022-07-29T14:16:10;8.33;;;6.17;;
21810;SDS011;11067;48.788;9.208;2022-07-29T14:18:35;7.30;;;5.80;;
21810;SDS011;11067;48.788;9.208;2022-07-29T14:21:01;8.05;;;6.60;;
21810;SDS011;11067;48.788;9.208;2022-07-29T14:23:27;7.80;;;6.78;;
21810;SDS011;11067;48.788;9.208;2022-07-29T14:25:52;7.73;;;6.70;;
21810;SDS011;11067;48.788;9.208;2022-07-29T14:28:18;7.03;;;6.25;;
21810;SDS011;11067;48.788;9.208;2022-07-29T14:30:43;7.00;;;6.30;;
21810;SDS011;11067;48.788;9.208;2022-07-29T14:33:09;11.57;;;7.82;;
21810;SDS011;11067;48.788;9.208;2022-07-29T14:35:35;7.33;;;6.47;;
21810;SDS011;11067;48.788;9.208;2022-07-29T14:38:00;7.50;;;6.70;;
21810;SDS011;11067;48.788;9.208;2022-07-29T14:40:26;9.30;;;6.77;;
21810;SDS011;11067;48.788;9.208;2022-07-29T14:42:51;8.60;;;6.57;;
21810;SDS011;11067;48.788;9.208;2022-07-29T14:45:18;8.48;;;6.47;;
21810;SDS011;11067;48.788;9.208;2022-07-29T14:47:44;9.60;;;6.68;;
21810;SDS011;11067;48.788;9.208;2022-07-29T14:50:09;7.93;;;6.73;;
21810;SDS011;11067;48.788;9.208;2022-07-29T14:52:35;8.77;;;6.90;;
21810;SDS011;11067;48.788;9.208;2022-07-29T14:55:01;8.43;;;6.63;;
21810;SDS011;11067;48.788;9.208;2022-07-29T14:57:27;10.25;;;6.90;;
21810;SDS011;11067;48.788;9.208;2022-07-29T14:59:53;7.72;;;6.93;;
21810;SDS011;11067;48.788;9.208;2022-07-29T15:02:19;8.98;;;6.72;;
21810;SDS011;11067;48.788;9.208;2022-07-29T15:04:44;9.00;;;6.90;;
21810;SDS011;11067;48.788;9.208;2022-07-29T15:07:10;7.57;;;6.77;;
21810;SDS011;11067;48.788;9.208;2022-07-29T15:09:36;6.97;;;5.85;;
21810;SDS011;11067;48.788;9.208;2022-07-29T15:12:02;9.67;;;6.90;;
21810;SDS011;11067;48.788;9.208;2022-07-29T15:14:28;7.13;;;6.35;;
21810;SDS011;11067;48.788;9.208;2022-07-29T15:16:53;11.97;;;6.80;;
21810;SDS011;11067;48.788;9.208;2022-07-29T15:19:19;9.73;;;7.63;;
21810;SDS011;11067;48.788;9.208;2022-07-29T15:21:44;8.43;;;6.73;;
21810;SDS011;11067;48.788;9.208;2022-07-29T15:24:12;8.37;;;6.60;;
21810;SDS011;11067;48.788;9.208;2022-07-29T15:26:38;8.63;;;7.50;;
21810;SDS011;11067;48.788;9.208;2022-07-29T15:29:04;8.97;;;6.70;;
21810;SDS011;11067;48.788;9.208;2022-07-29T15:31:29;8.38;;;6.80;;
21810;SDS011;11067;48.788;9.208;2022-07-29T15:33:55;9.33;;;7.47;;
21810;SDS011;11067;48.788;9.208;2022-07-29T15:36:20;11.00;;;7.47;;
21810;SDS011;11067;48.788;9.208;2022-07-29T15:38:46;9.25;;;7.25;;
21810;SDS011;11067;48.788;9.208;2022-07-29T15:41:14;11.27;;;7.60;;
21810;SDS011;11067;48.788;9.208;2022-07-29T15:43:42;11.10;;;7.60;;
21810;SDS011;11067;48.788;9.208;2022-07-29T15:46:11;9.40;;;7.25;;
21810;SDS011;11067;48.788;9.208;2022-07-29T15:48:57;9.93;;;7.72;;